createdAt,value
2023-11-04T00:04:11.413Z,98653.41
2023-11-04T00:09:19.465Z,98655.97
2023-11-04T00:14:22.293Z,98673.03
2023-11-04T00:19:24.680Z,98701.53
2023-11-04T00:24:26.962Z,98682.94
2023-11-04T00:29:30.269Z,98687.53
2023-11-04T00:34:32.497Z,98690.97
2023-11-04T00:39:34.833Z,98695.22
2023-11-04T00:44:36.998Z,98682.56
2023-11-04T00:49:40.158Z,98672.69
2023-11-04T00:54:42.613Z,98673.53
2023-11-04T00:59:44.818Z,98688.03
2023-11-04T01:04:47.014Z,98671.06
2023-11-04T01:09:49.266Z,98683.16
2023-11-04T01:14:51.453Z,98676.75
2023-11-04T01:19:53.685Z,98682.59
2023-11-04T01:24:55.799Z,98676.03
2023-11-04T01:29:58.044Z,98677.81
2023-11-04T01:35:00.634Z,98679.81
2023-11-04T01:40:08.226Z,98680.56
2023-11-04T01:45:10.685Z,98686.22
2023-11-04T01:50:13.173Z,98683.59
2023-11-04T01:55:15.874Z,98682.72
2023-11-04T02:00:18.816Z,98698.59
2023-11-04T02:05:21.521Z,98700.53
2023-11-04T02:10:23.757Z,98708.75
2023-11-04T02:15:26.900Z,98715.31
2023-11-04T02:20:29.888Z,98708.84
2023-11-04T02:25:35.791Z,98694.38
2023-11-04T02:30:37.999Z,98706.41
2023-11-04T02:35:40.216Z,98709.44
2023-11-04T02:40:45.815Z,98720.87
2023-11-04T02:45:48.092Z,98723.62
2023-11-04T02:50:50.502Z,98713.22
2023-11-04T02:55:52.748Z,98694.75
2023-11-04T03:00:55.003Z,98702.84
2023-11-04T03:05:57.432Z,98704.00
2023-11-04T03:10:59.642Z,98700.16
2023-11-04T03:16:01.919Z,98708.09
2023-11-04T03:21:13.158Z,98710.84
2023-11-04T03:26:15.479Z,98738.53
2023-11-04T03:31:17.835Z,98730.34
2023-11-04T03:36:19.977Z,98727.72
2023-11-04T03:41:22.334Z,98729.72
2023-11-04T03:46:24.471Z,98722.13
2023-11-04T03:51:27.497Z,98733.47
2023-11-04T03:56:29.712Z,98737.59
2023-11-04T04:01:42.008Z,98739.41
2023-11-04T04:06:44.273Z,98740.22
2023-11-04T04:11:46.498Z,98744.47
2023-11-04T04:16:48.703Z,98764.28
2023-11-04T04:21:50.881Z,98763.03
2023-11-04T04:26:53.256Z,98751.41
2023-11-04T04:31:55.841Z,98734.53
2023-11-04T04:36:59.773Z,98758.22
2023-11-04T04:42:02.251Z,98767.94
2023-11-04T04:47:04.707Z,98752.69
2023-11-04T04:52:06.936Z,98757.81
2023-11-04T04:57:09.123Z,98768.53
2023-11-04T05:02:11.328Z,98758.91
2023-11-04T05:07:13.784Z,98771.06
2023-11-04T05:12:16.241Z,98772.41
2023-11-04T05:17:18.903Z,98753.09
2023-11-04T05:22:21.051Z,98734.31
2023-11-04T05:27:24.434Z,98727.59
2023-11-04T05:32:26.737Z,98736.28
2023-11-04T05:37:29.034Z,98716.12
2023-11-04T05:42:31.236Z,98714.50
2023-11-04T05:47:34.705Z,98702.38
2023-11-04T05:52:36.969Z,98708.84
2023-11-04T05:57:39.778Z,98721.31
2023-11-04T06:02:42.725Z,98735.50
2023-11-04T06:07:44.891Z,98739.66
2023-11-04T06:12:47.028Z,98736.78
2023-11-04T06:17:49.392Z,98727.22
2023-11-04T06:22:51.661Z,98736.94
2023-11-04T06:27:53.972Z,98737.75
2023-11-04T06:32:56.098Z,98740.16
2023-11-04T06:37:58.385Z,98741.53
2023-11-04T06:43:00.660Z,98762.75
2023-11-04T06:48:03.009Z,98747.66
2023-11-04T06:53:05.277Z,98736.56
2023-11-04T06:58:07.445Z,98740.56
2023-11-04T07:03:09.684Z,98755.62
2023-11-04T07:08:17.966Z,98779.56
2023-11-04T07:13:20.211Z,98781.03
2023-11-04T07:18:22.414Z,98777.62
2023-11-04T07:23:24.545Z,98787.97
2023-11-04T07:28:35.671Z,98801.31
2023-11-04T07:33:39.198Z,98811.50
2023-11-04T07:38:41.650Z,98818.63
2023-11-04T07:43:44.029Z,98815.50
2023-11-04T07:48:46.316Z,98823.59
2023-11-04T07:53:48.493Z,98819.63
2023-11-04T07:58:50.590Z,98818.22
2023-11-04T08:03:52.907Z,98816.41
2023-11-04T08:08:55.189Z,98820.31
2023-11-04T08:13:57.353Z,98808.88
2023-11-04T08:18:59.587Z,98790.59
2023-11-04T08:24:01.909Z,98795.59
2023-11-04T08:29:09.792Z,98772.31
2023-11-04T08:34:12.175Z,98777.81
2023-11-04T08:39:15.523Z,98784.50
2023-11-04T08:44:17.686Z,98790.78
2023-11-04T08:49:19.977Z,98786.44
2023-11-04T08:54:23.176Z,98770.53
2023-11-04T08:59:25.393Z,98764.47
2023-11-04T09:04:28.886Z,98755.16
2023-11-04T09:09:31.492Z,98750.16
2023-11-04T09:14:34.131Z,98760.19
2023-11-04T09:19:36.322Z,98745.25
2023-11-04T09:24:38.870Z,98717.38
2023-11-04T09:29:41.114Z,98718.13
2023-11-04T09:34:43.486Z,98695.47
2023-11-04T09:39:45.822Z,98672.66
2023-11-04T09:44:48.203Z,98668.34
2023-11-04T09:49:51.062Z,98670.19
2023-11-04T09:54:53.666Z,98659.13
2023-11-04T09:59:56.059Z,98657.91
2023-11-04T10:04:59.787Z,98655.69
2023-11-04T10:10:10.501Z,98668.75
2023-11-04T10:15:18.930Z,98657.69
2023-11-04T10:20:21.730Z,98627.00
2023-11-04T10:25:24.195Z,98610.94
2023-11-04T10:30:26.490Z,98604.06
2023-11-04T10:35:29.187Z,98591.03
2023-11-04T10:40:31.406Z,98592.47
2023-11-04T10:45:41.806Z,98582.53
2023-11-04T10:50:50.300Z,98577.81
2023-11-04T10:56:34.870Z,98576.13
2023-11-04T11:01:38.400Z,98576.19
2023-11-04T11:06:41.223Z,98569.06
2023-11-04T11:11:53.757Z,98558.56
2023-11-04T11:17:02.937Z,98566.25
2023-11-04T11:22:06.631Z,98558.59
2023-11-04T11:27:09.102Z,98537.03
2023-11-04T11:32:11.857Z,98537.94
2023-11-04T11:37:14.068Z,98523.53
2023-11-04T11:42:16.818Z,98527.84
2023-11-04T11:47:21.909Z,98519.34
2023-11-04T11:52:24.134Z,98525.16
2023-11-04T11:57:26.439Z,98512.97
2023-11-04T12:02:28.734Z,98512.50
2023-11-04T12:07:33.122Z,98506.28
2023-11-04T12:12:36.052Z,98502.44
2023-11-04T12:17:38.513Z,98503.56
2023-11-04T12:22:40.921Z,98500.31
2023-11-04T12:27:49.712Z,98486.41
2023-11-04T12:32:54.368Z,98491.28
2023-11-04T12:37:57.290Z,98496.81
2023-11-04T12:43:05.579Z,98480.25
2023-11-04T12:48:09.227Z,98496.75
2023-11-04T12:53:12.946Z,98485.34
2023-11-04T12:58:15.156Z,98506.00
2023-11-04T13:03:18.208Z,98512.84
2023-11-04T13:08:20.455Z,98520.38
2023-11-04T13:13:22.744Z,98504.81
2023-11-04T13:18:24.914Z,98515.97
2023-11-04T13:23:27.088Z,98510.25
2023-11-04T13:28:29.490Z,98517.91
2023-11-04T13:33:31.734Z,98507.87
2023-11-04T13:38:33.885Z,98491.50
2023-11-04T13:43:36.044Z,98505.47
2023-11-04T13:48:38.341Z,98487.22
2023-11-04T13:53:40.580Z,98498.31
2023-11-04T13:58:42.824Z,98514.34
2023-11-04T14:03:46.250Z,98514.09
2023-11-04T14:08:49.668Z,98513.88
2023-11-04T14:13:51.928Z,98507.97
2023-11-04T14:18:55.017Z,98496.41
2023-11-04T14:24:00.232Z,98516.84
2023-11-04T14:29:02.509Z,98522.06
2023-11-04T14:34:04.756Z,98515.53
2023-11-04T14:39:06.979Z,98515.97
2023-11-04T14:44:09.220Z,98500.63
2023-11-04T14:49:11.559Z,98511.88
2023-11-04T14:54:13.897Z,98529.66
2023-11-04T14:59:16.608Z,98534.66
2023-11-04T15:04:19.071Z,98542.22
2023-11-04T15:09:21.427Z,98539.16
2023-11-04T15:14:23.780Z,98542.78
2023-11-04T15:19:26.146Z,98543.66
2023-11-04T15:24:28.314Z,98543.03
2023-11-04T15:29:30.619Z,98539.88
2023-11-04T15:34:33.080Z,98534.19
2023-11-04T15:39:36.956Z,98536.56
2023-11-04T15:44:39.251Z,98541.66
2023-11-04T15:49:41.369Z,98533.41
2023-11-04T15:54:43.637Z,98546.41
2023-11-04T15:59:45.784Z,98540.16
2023-11-04T16:04:48.022Z,98538.59
2023-11-04T16:09:50.235Z,98539.34
2023-11-04T16:14:52.451Z,98556.72
2023-11-04T16:19:54.698Z,98560.63
2023-11-04T16:24:57.451Z,98566.44
2023-11-04T16:30:00.234Z,98564.06
2023-11-04T16:35:04.701Z,98542.34
2023-11-04T16:40:07.518Z,98535.94
2023-11-04T16:45:12.840Z,98538.53
2023-11-04T16:50:16.514Z,98536.31
2023-11-04T16:55:18.837Z,98532.78
2023-11-04T17:00:21.170Z,98524.88
2023-11-04T17:05:23.420Z,98522.09
2023-11-04T17:10:27.002Z,98530.84
2023-11-04T17:15:29.721Z,98522.91
2023-11-04T17:20:31.856Z,98520.81
2023-11-04T17:25:34.068Z,98517.06
2023-11-04T17:30:36.231Z,98526.97
2023-11-04T17:35:38.536Z,98522.63
2023-11-04T17:40:41.144Z,98518.72
2023-11-04T17:45:43.365Z,98518.06
2023-11-04T17:50:45.600Z,98518.06
2023-11-04T17:55:47.916Z,98514.69
2023-11-04T18:00:50.113Z,98520.66
2023-11-04T18:05:52.343Z,98518.25
2023-11-04T18:10:55.567Z,98529.87
2023-11-04T18:15:58.307Z,98529.72
2023-11-04T18:21:00.606Z,98521.00
2023-11-04T18:26:04.139Z,98524.53
2023-11-04T18:31:06.504Z,98520.63
2023-11-04T18:36:09.037Z,98519.66
2023-11-04T18:41:16.998Z,98519.62
2023-11-04T18:46:19.322Z,98521.41
2023-11-04T18:51:21.624Z,98510.91
2023-11-04T18:56:23.960Z,98505.09
2023-11-04T19:01:26.305Z,98504.25
2023-11-04T19:06:28.571Z,98493.25
2023-11-04T19:11:30.866Z,98500.31
2023-11-04T19:16:33.138Z,98504.66
2023-11-04T19:21:35.402Z,98500.63
2023-11-04T19:26:37.661Z,98503.69
2023-11-04T19:31:39.923Z,98507.53
2023-11-04T19:36:42.166Z,98504.75
2023-11-04T19:41:44.288Z,98510.88
2023-11-04T19:46:46.501Z,98518.28
2023-11-04T19:51:49.034Z,98524.25
2023-11-04T19:56:52.488Z,98522.19
2023-11-04T20:01:55.927Z,98530.47
2023-11-04T20:06:58.131Z,98531.38
2023-11-04T20:12:02.490Z,98505.19
2023-11-04T20:17:04.710Z,98533.12
2023-11-04T20:22:07.313Z,98534.53
2023-11-04T20:27:09.661Z,98517.31
2023-11-04T20:32:12.168Z,98513.47
2023-11-04T20:37:14.476Z,98517.84
2023-11-04T20:42:16.767Z,98510.59
2023-11-04T20:47:19.063Z,98483.59
2023-11-04T20:52:21.338Z,98473.75
2023-11-04T20:57:23.601Z,98470.78
2023-11-04T21:02:25.802Z,98468.63
2023-11-04T21:07:28.030Z,98452.00
2023-11-04T21:12:30.273Z,98444.66
2023-11-04T21:17:32.406Z,98443.66
2023-11-04T21:22:38.065Z,98463.16
2023-11-04T21:27:40.523Z,98473.28
2023-11-04T21:32:43.133Z,98469.44
2023-11-04T21:37:45.481Z,98472.19
2023-11-04T21:42:47.692Z,98467.38
2023-11-04T21:47:49.871Z,98460.22
2023-11-04T21:52:52.383Z,98461.63
2023-11-04T21:57:54.678Z,98464.66
2023-11-04T22:02:57.033Z,98461.63
2023-11-04T22:07:59.187Z,98467.50
2023-11-04T22:13:01.376Z,98458.41
2023-11-04T22:18:04.810Z,98441.91
2023-11-04T22:23:08.368Z,98446.81
2023-11-04T22:28:10.622Z,98435.34
2023-11-04T22:33:12.880Z,98444.81
2023-11-04T22:38:15.185Z,98442.50
2023-11-04T22:43:17.539Z,98434.94
2023-11-04T22:48:19.773Z,98440.78
2023-11-04T22:53:22.023Z,98421.91
2023-11-04T22:58:24.261Z,98428.81
2023-11-04T23:03:26.985Z,98437.97
2023-11-04T23:08:29.708Z,98423.09
2023-11-04T23:13:31.835Z,98418.09
2023-11-04T23:18:34.166Z,98409.84
2023-11-04T23:23:36.482Z,98412.56
2023-11-04T23:28:38.708Z,98405.63
2023-11-04T23:33:40.988Z,98397.16
2023-11-04T23:38:43.195Z,98395.38
2023-11-04T23:43:45.668Z,98383.34
2023-11-04T23:48:47.832Z,98398.06
2023-11-04T23:53:50.030Z,98382.12
2023-11-04T23:58:52.374Z,98388.22
